Bascom, Florida
Current Conditions -  °F | °C
As of 7:53 AM on Friday 24 Oct 2014 (Local Time) from KMAI Reporting Station
Light Rain Light Rain  
Wind Chill: 52°   Ceiling: Unl
Heat Index: 52°   Visibility: 10mi
Dew Point: 51°   Wind: 3mph
Humidity: 97%   Direction: 310°NW
Pressure: 30.06"   Gusts: NA
Location:  30.93°N, 85.12°W
Report Text: KMAI 241253Z AUTO 31003KT 10SM -RA CLR 11/11 A3006 RMK AO2 RAB02 SLP179 P0000 T01110106 $
Loading
Personal Weather Stations






























Interactive Weather Map
Tropical Storm Tracking
New forecast layout! Learn more

10-Day Weather Forecast

Advertisements
Track Severe Weather on mobile